Alhambra, Illinois
Current Conditions -  °F | °C
As of 9:50 AM on Friday 31 Oct 2014 (Local Time) from KALN Reporting Station
Scattered Clouds Scattered Clouds  
Wind Chill: 32°   Ceiling: Unl
Heat Index: 41°   Visibility: 10mi
Dew Point: 19°   Wind: 18mph
Humidity: 42%   Direction: 340°NNW
Pressure: 30.25"   Gusts: 29mph
Location:  38.89°N, 89.73°W
Report Text: KALN 311450Z 34016G25KT 10SM SCT040 05/M07 A3025
Loading
Personal Weather Stations






























Interactive Weather Map
Tropical Storm Tracking
New forecast layout! Learn more

10-Day Weather Forecast

Advertisements
Track Severe Weather on mobile